sensor_id;sensor_type;location;lat;lon;timestamp;pressure;altitude;pressure_sealevel;temperature;humidity
84255;BME280;74400;44.692;18.998;2024-01-07T00:01:58;97928.13;;;7.88;78.41
84255;BME280;74400;44.692;18.998;2024-01-07T00:04:23;97931.50;;;7.88;78.92
84255;BME280;74400;44.692;18.998;2024-01-07T00:06:49;97937.84;;;7.94;78.56
84255;BME280;74400;44.692;18.998;2024-01-07T00:11:42;97924.06;;;7.85;75.94
84255;BME280;74400;44.692;18.998;2024-01-07T00:14:08;97930.00;;;7.86;76.76
84255;BME280;74400;44.692;18.998;2024-01-07T00:16:33;97922.44;;;7.75;77.20
84255;BME280;74400;44.692;18.998;2024-01-07T00:18:59;97922.06;;;7.79;78.30
84255;BME280;74400;44.692;18.998;2024-01-07T00:21:25;97921.50;;;7.76;77.51
84255;BME280;74400;44.692;18.998;2024-01-07T00:23:51;97920.91;;;7.63;78.06
84255;BME280;74400;44.692;18.998;2024-01-07T00:26:17;97919.03;;;7.55;78.23
84255;BME280;74400;44.692;18.998;2024-01-07T00:28:42;97920.72;;;7.45;78.16
84255;BME280;74400;44.692;18.998;2024-01-07T00:31:12;97910.75;;;7.42;78.87
84255;BME280;74400;44.692;18.998;2024-01-07T00:33:37;97905.50;;;7.43;78.26
84255;BME280;74400;44.692;18.998;2024-01-07T00:36:03;97910.25;;;7.48;78.44
84255;BME280;74400;44.692;18.998;2024-01-07T00:38:29;97905.38;;;7.45;77.80
84255;BME280;74400;44.692;18.998;2024-01-07T00:40:54;97918.81;;;7.37;78.15
84255;BME280;74400;44.692;18.998;2024-01-07T00:43:20;97926.19;;;7.30;78.17
84255;BME280;74400;44.692;18.998;2024-01-07T00:45:46;97927.38;;;7.26;79.17
84255;BME280;74400;44.692;18.998;2024-01-07T00:48:14;97933.59;;;7.33;79.37
84255;BME280;74400;44.692;18.998;2024-01-07T00:50:40;97924.16;;;7.34;78.23
84255;BME280;74400;44.692;18.998;2024-01-07T00:53:05;97919.38;;;7.10;78.33
84255;BME280;74400;44.692;18.998;2024-01-07T00:55:31;97915.44;;;7.06;79.51
84255;BME280;74400;44.692;18.998;2024-01-07T00:57:57;97923.25;;;7.04;80.12
84255;BME280;74400;44.692;18.998;2024-01-07T01:00:22;97915.09;;;7.20;80.10
84255;BME280;74400;44.692;18.998;2024-01-07T01:02:48;97917.94;;;7.27;79.22
84255;BME280;74400;44.692;18.998;2024-01-07T01:05:14;97911.78;;;7.29;78.77
84255;BME280;74400;44.692;18.998;2024-01-07T01:07:40;97915.28;;;7.28;79.83
84255;BME280;74400;44.692;18.998;2024-01-07T01:10:06;97924.56;;;7.29;79.57
84255;BME280;74400;44.692;18.998;2024-01-07T01:12:32;97915.16;;;7.30;80.19
84255;BME280;74400;44.692;18.998;2024-01-07T01:14:58;97921.22;;;7.29;79.95
84255;BME280;74400;44.692;18.998;2024-01-07T01:17:23;97919.38;;;7.41;80.12
84255;BME280;74400;44.692;18.998;2024-01-07T01:19:49;97906.47;;;7.52;79.25
84255;BME280;74400;44.692;18.998;2024-01-07T01:22:15;97910.91;;;7.50;78.59
84255;BME280;74400;44.692;18.998;2024-01-07T01:24:40;97909.72;;;7.54;78.78
84255;BME280;74400;44.692;18.998;2024-01-07T01:27:07;97913.25;;;7.63;78.90
84255;BME280;74400;44.692;18.998;2024-01-07T01:29:33;97919.03;;;7.65;77.84
84255;BME280;74400;44.692;18.998;2024-01-07T01:31:59;97906.81;;;7.68;78.01
84255;BME280;74400;44.692;18.998;2024-01-07T01:34:25;97902.25;;;7.81;78.01
84255;BME280;74400;44.692;18.998;2024-01-07T01:36:50;97912.75;;;7.98;76.88
84255;BME280;74400;44.692;18.998;2024-01-07T01:39:16;97908.72;;;7.95;77.41
84255;BME280;74400;44.692;18.998;2024-01-07T01:41:42;97915.75;;;8.03;77.29
84255;BME280;74400;44.692;18.998;2024-01-07T01:44:07;97918.59;;;8.09;76.20
84255;BME280;74400;44.692;18.998;2024-01-07T01:46:33;97916.56;;;8.03;76.24
84255;BME280;74400;44.692;18.998;2024-01-07T01:48:59;97918.97;;;8.05;77.23
84255;BME280;74400;44.692;18.998;2024-01-07T01:51:26;97920.88;;;8.12;77.84
84255;BME280;74400;44.692;18.998;2024-01-07T01:53:52;97923.56;;;8.11;77.46
84255;BME280;74400;44.692;18.998;2024-01-07T01:56:20;97921.94;;;8.10;78.21
84255;BME280;74400;44.692;18.998;2024-01-07T01:58:48;97919.00;;;8.24;78.30
84255;BME280;74400;44.692;18.998;2024-01-07T02:01:14;97904.97;;;8.28;77.51
84255;BME280;74400;44.692;18.998;2024-01-07T02:03:40;97903.94;;;8.40;76.48
84255;BME280;74400;44.692;18.998;2024-01-07T02:06:06;97900.81;;;8.37;77.27
84255;BME280;74400;44.692;18.998;2024-01-07T02:08:32;97907.13;;;8.23;75.44
84255;BME280;74400;44.692;18.998;2024-01-07T02:10:58;97903.78;;;8.13;76.80
84255;BME280;74400;44.692;18.998;2024-01-07T02:13:24;97895.53;;;8.09;77.16
84255;BME280;74400;44.692;18.998;2024-01-07T02:15:50;97893.09;;;8.18;78.15
84255;BME280;74400;44.692;18.998;2024-01-07T02:18:16;97895.03;;;8.25;76.78
84255;BME280;74400;44.692;18.998;2024-01-07T02:20:42;97889.38;;;8.31;77.19
84255;BME280;74400;44.692;18.998;2024-01-07T02:23:08;97890.97;;;8.32;77.76
84255;BME280;74400;44.692;18.998;2024-01-07T02:25:37;97892.44;;;8.35;78.06
84255;BME280;74400;44.692;18.998;2024-01-07T02:28:04;97892.59;;;8.53;78.81
84255;BME280;74400;44.692;18.998;2024-01-07T02:30:30;97892.31;;;8.56;77.27
84255;BME280;74400;44.692;18.998;2024-01-07T02:32:55;97888.28;;;8.53;78.08
84255;BME280;74400;44.692;18.998;2024-01-07T02:35:21;97886.81;;;8.51;77.63
84255;BME280;74400;44.692;18.998;2024-01-07T02:37:46;97882.63;;;8.59;78.07
84255;BME280;74400;44.692;18.998;2024-01-07T02:40:12;97878.69;;;8.65;77.44
84255;BME280;74400;44.692;18.998;2024-01-07T02:42:38;97881.53;;;8.62;78.19
84255;BME280;74400;44.692;18.998;2024-01-07T02:45:04;97877.38;;;8.51;78.28
84255;BME280;74400;44.692;18.998;2024-01-07T02:47:29;97868.88;;;8.51;78.34
84255;BME280;74400;44.692;18.998;2024-01-07T02:49:55;97866.69;;;8.56;78.91
84255;BME280;74400;44.692;18.998;2024-01-07T02:52:21;97871.00;;;8.55;78.38
84255;BME280;74400;44.692;18.998;2024-01-07T02:54:46;97873.47;;;8.57;79.19
84255;BME280;74400;44.692;18.998;2024-01-07T02:57:12;97872.78;;;8.55;79.14
84255;BME280;74400;44.692;18.998;2024-01-07T02:59:38;97864.81;;;8.58;77.73
84255;BME280;74400;44.692;18.998;2024-01-07T03:02:03;97860.22;;;8.61;78.59
84255;BME280;74400;44.692;18.998;2024-01-07T03:04:29;97871.97;;;8.64;78.45
84255;BME280;74400;44.692;18.998;2024-01-07T03:06:55;97870.59;;;8.60;78.11
84255;BME280;74400;44.692;18.998;2024-01-07T03:09:20;97871.81;;;8.56;78.14
84255;BME280;74400;44.692;18.998;2024-01-07T03:11:46;97865.78;;;8.57;78.63
84255;BME280;74400;44.692;18.998;2024-01-07T03:14:12;97876.03;;;8.57;79.16
84255;BME280;74400;44.692;18.998;2024-01-07T03:16:37;97871.81;;;8.56;77.70
84255;BME280;74400;44.692;18.998;2024-01-07T03:19:03;97877.22;;;8.53;79.09
84255;BME280;74400;44.692;18.998;2024-01-07T03:21:30;97884.63;;;8.56;79.30
84255;BME280;74400;44.692;18.998;2024-01-07T03:23:55;97885.56;;;8.55;78.34
84255;BME280;74400;44.692;18.998;2024-01-07T03:26:21;97882.09;;;8.46;79.13
84255;BME280;74400;44.692;18.998;2024-01-07T03:28:47;97877.78;;;8.47;78.94
84255;BME280;74400;44.692;18.998;2024-01-07T03:33:41;97881.53;;;8.62;78.46
84255;BME280;74400;44.692;18.998;2024-01-07T03:36:09;97869.50;;;8.62;78.35
84255;BME280;74400;44.692;18.998;2024-01-07T03:38:36;97869.25;;;8.56;78.69
84255;BME280;74400;44.692;18.998;2024-01-07T03:41:02;97874.94;;;8.50;78.97
84255;BME280;74400;44.692;18.998;2024-01-07T03:43:28;97877.13;;;8.45;79.24
84255;BME280;74400;44.692;18.998;2024-01-07T03:45:53;97880.34;;;8.47;79.78
84255;BME280;74400;44.692;18.998;2024-01-07T03:48:19;97874.25;;;8.48;79.17
84255;BME280;74400;44.692;18.998;2024-01-07T03:50:45;97884.66;;;8.46;79.46
84255;BME280;74400;44.692;18.998;2024-01-07T03:53:11;97873.59;;;8.46;79.51
84255;BME280;74400;44.692;18.998;2024-01-07T03:55:37;97868.75;;;8.43;79.72
84255;BME280;74400;44.692;18.998;2024-01-07T03:58:02;97870.50;;;8.42;79.31
84255;BME280;74400;44.692;18.998;2024-01-07T04:00:28;97876.16;;;8.46;79.66
84255;BME280;74400;44.692;18.998;2024-01-07T04:02:54;97876.81;;;8.48;79.47
84255;BME280;74400;44.692;18.998;2024-01-07T04:05:19;97882.25;;;8.45;79.17
84255;BME280;74400;44.692;18.998;2024-01-07T04:07:45;97884.25;;;8.41;79.50
84255;BME280;74400;44.692;18.998;2024-01-07T04:10:11;97888.56;;;8.40;79.74
84255;BME280;74400;44.692;18.998;2024-01-07T04:12:37;97887.22;;;8.36;78.99
84255;BME280;74400;44.692;18.998;2024-01-07T04:15:03;97886.00;;;8.40;79.00
84255;BME280;74400;44.692;18.998;2024-01-07T04:17:29;97885.47;;;8.47;79.17
84255;BME280;74400;44.692;18.998;2024-01-07T04:19:55;97890.19;;;8.41;79.71
84255;BME280;74400;44.692;18.998;2024-01-07T04:22:21;97896.38;;;8.49;79.63
84255;BME280;74400;44.692;18.998;2024-01-07T04:24:46;97903.09;;;8.50;78.13
84255;BME280;74400;44.692;18.998;2024-01-07T04:27:12;97905.81;;;8.58;79.32
84255;BME280;74400;44.692;18.998;2024-01-07T04:29:38;97911.19;;;8.55;78.56
84255;BME280;74400;44.692;18.998;2024-01-07T04:32:04;97922.00;;;8.49;78.81
84255;BME280;74400;44.692;18.998;2024-01-07T04:34:29;97915.25;;;8.48;79.09
84255;BME280;74400;44.692;18.998;2024-01-07T04:36:55;97916.88;;;8.58;79.06
84255;BME280;74400;44.692;18.998;2024-01-07T04:39:21;97925.78;;;8.64;78.39
84255;BME280;74400;44.692;18.998;2024-01-07T04:41:46;97922.53;;;8.62;78.74
84255;BME280;74400;44.692;18.998;2024-01-07T04:44:12;97921.19;;;8.58;78.44
84255;BME280;74400;44.692;18.998;2024-01-07T04:46:38;97911.75;;;8.58;78.80
84255;BME280;74400;44.692;18.998;2024-01-07T04:49:04;97904.06;;;8.58;78.04
84255;BME280;74400;44.692;18.998;2024-01-07T04:51:31;97901.75;;;8.55;79.02
84255;BME280;74400;44.692;18.998;2024-01-07T04:53:57;97897.59;;;8.54;78.69
84255;BME280;74400;44.692;18.998;2024-01-07T04:56:22;97890.56;;;8.56;78.51
84255;BME280;74400;44.692;18.998;2024-01-07T04:58:48;97896.91;;;8.62;77.86
84255;BME280;74400;44.692;18.998;2024-01-07T05:01:14;97899.72;;;8.68;78.48
84255;BME280;74400;44.692;18.998;2024-01-07T05:03:40;97896.53;;;8.57;78.16
84255;BME280;74400;44.692;18.998;2024-01-07T05:06:08;97906.06;;;8.55;78.62
84255;BME280;74400;44.692;18.998;2024-01-07T05:08:36;97900.81;;;8.56;79.35
84255;BME280;74400;44.692;18.998;2024-01-07T05:11:01;97905.28;;;8.54;79.11
84255;BME280;74400;44.692;18.998;2024-01-07T05:13:27;97909.72;;;8.52;78.63
84255;BME280;74400;44.692;18.998;2024-01-07T05:15:53;97906.91;;;8.46;78.89
84255;BME280;74400;44.692;18.998;2024-01-07T05:18:24;97924.03;;;8.45;78.65
84255;BME280;74400;44.692;18.998;2024-01-07T05:20:51;97941.28;;;8.53;78.41
84255;BME280;74400;44.692;18.998;2024-01-07T05:23:17;97938.72;;;8.53;78.61
84255;BME280;74400;44.692;18.998;2024-01-07T05:25:44;97944.09;;;8.50;78.69
84255;BME280;74400;44.692;18.998;2024-01-07T05:28:13;97945.19;;;8.47;78.87
84255;BME280;74400;44.692;18.998;2024-01-07T05:30:40;97935.59;;;8.49;78.86
84255;BME280;74400;44.692;18.998;2024-01-07T05:33:06;97946.66;;;8.50;78.11
84255;BME280;74400;44.692;18.998;2024-01-07T05:35:32;97958.81;;;8.38;78.32
84255;BME280;74400;44.692;18.998;2024-01-07T05:37:57;97952.19;;;8.35;79.36
84255;BME280;74400;44.692;18.998;2024-01-07T05:40:23;97943.81;;;8.33;79.28
84255;BME280;74400;44.692;18.998;2024-01-07T05:42:49;97929.69;;;8.49;78.83
84255;BME280;74400;44.692;18.998;2024-01-07T05:45:15;97932.50;;;8.65;78.69
84255;BME280;74400;44.692;18.998;2024-01-07T05:47:41;97934.38;;;8.63;78.08
84255;BME280;74400;44.692;18.998;2024-01-07T05:50:07;97939.25;;;8.56;77.71
84255;BME280;74400;44.692;18.998;2024-01-07T05:52:33;97939.25;;;8.56;78.78
84255;BME280;74400;44.692;18.998;2024-01-07T05:54:59;97943.31;;;8.59;78.39
84255;BME280;74400;44.692;18.998;2024-01-07T05:57:24;97954.50;;;8.58;78.39
84255;BME280;74400;44.692;18.998;2024-01-07T05:59:50;97956.25;;;8.57;78.36
84255;BME280;74400;44.692;18.998;2024-01-07T06:04:42;97956.50;;;8.54;78.40
84255;BME280;74400;44.692;18.998;2024-01-07T06:07:08;97957.06;;;8.58;78.73
84255;BME280;74400;44.692;18.998;2024-01-07T06:09:34;97964.59;;;8.69;78.00
84255;BME280;74400;44.692;18.998;2024-01-07T06:12:00;97970.00;;;8.56;78.55
84255;BME280;74400;44.692;18.998;2024-01-07T06:14:25;97969.59;;;8.51;77.87
84255;BME280;74400;44.692;18.998;2024-01-07T06:16:51;97969.59;;;8.51;78.81
84255;BME280;74400;44.692;18.998;2024-01-07T06:19:18;97968.94;;;8.59;78.52
84255;BME280;74400;44.692;18.998;2024-01-07T06:21:43;97970.00;;;8.66;77.00
84255;BME280;74400;44.692;18.998;2024-01-07T06:24:09;97977.81;;;8.74;77.54
84255;BME280;74400;44.692;18.998;2024-01-07T06:26:35;97975.66;;;8.60;77.68
84255;BME280;74400;44.692;18.998;2024-01-07T06:29:00;97973.38;;;8.57;77.00
84255;BME280;74400;44.692;18.998;2024-01-07T06:31:26;97967.97;;;8.60;77.59
84255;BME280;74400;44.692;18.998;2024-01-07T06:33:52;97962.84;;;8.60;77.50
84255;BME280;74400;44.692;18.998;2024-01-07T06:36:18;97974.84;;;8.59;77.98
84255;BME280;74400;44.692;18.998;2024-01-07T06:38:44;97970.00;;;8.66;77.20
84255;BME280;74400;44.692;18.998;2024-01-07T06:41:11;97975.53;;;8.71;77.36
84255;BME280;74400;44.692;18.998;2024-01-07T06:43:38;97970.81;;;8.76;76.72
84255;BME280;74400;44.692;18.998;2024-01-07T06:46:04;97971.34;;;8.70;77.47
84255;BME280;74400;44.692;18.998;2024-01-07T06:48:30;97970.56;;;8.70;76.95
84255;BME280;74400;44.692;18.998;2024-01-07T06:50:55;97967.69;;;8.73;76.83
84255;BME280;74400;44.692;18.998;2024-01-07T06:53:21;97979.59;;;8.64;77.01
84255;BME280;74400;44.692;18.998;2024-01-07T06:55:47;97974.47;;;8.64;76.66
84255;BME280;74400;44.692;18.998;2024-01-07T06:58:12;97972.81;;;8.63;76.69
84255;BME280;74400;44.692;18.998;2024-01-07T07:00:38;97982.41;;;8.61;76.85
84255;BME280;74400;44.692;18.998;2024-01-07T07:03:04;97987.41;;;8.53;77.13
84255;BME280;74400;44.692;18.998;2024-01-07T07:05:31;97994.25;;;8.43;77.46
84255;BME280;74400;44.692;18.998;2024-01-07T07:07:57;97995.75;;;8.55;78.16
84255;BME280;74400;44.692;18.998;2024-01-07T07:10:23;98000.88;;;8.55;77.69
84255;BME280;74400;44.692;18.998;2024-01-07T07:12:48;98001.41;;;8.49;78.27
84255;BME280;74400;44.692;18.998;2024-01-07T07:17:42;97997.22;;;8.48;77.93
84255;BME280;74400;44.692;18.998;2024-01-07T07:20:08;98012.75;;;8.56;78.05
84255;BME280;74400;44.692;18.998;2024-01-07T07:22:34;98015.03;;;8.59;77.43
84255;BME280;74400;44.692;18.998;2024-01-07T07:25:00;98020.84;;;8.51;76.81
84255;BME280;74400;44.692;18.998;2024-01-07T07:27:25;98035.13;;;8.54;78.00
84255;BME280;74400;44.692;18.998;2024-01-07T07:29:51;98029.75;;;8.57;77.59
84255;BME280;74400;44.692;18.998;2024-01-07T07:32:17;98038.53;;;8.64;76.97
84255;BME280;74400;44.692;18.998;2024-01-07T07:34:43;98041.47;;;8.69;76.41
84255;BME280;74400;44.692;18.998;2024-01-07T07:37:09;98039.47;;;8.73;75.95
84255;BME280;74400;44.692;18.998;2024-01-07T07:39:35;98046.06;;;8.75;75.66
84255;BME280;74400;44.692;18.998;2024-01-07T07:42:01;98052.56;;;8.79;75.82
84255;BME280;74400;44.692;18.998;2024-01-07T07:44:27;98052.16;;;8.84;75.40
84255;BME280;74400;44.692;18.998;2024-01-07T07:46:52;98058.50;;;8.89;75.85
84255;BME280;74400;44.692;18.998;2024-01-07T07:49:18;98053.78;;;8.85;75.15
84255;BME280;74400;44.692;18.998;2024-01-07T07:51:44;98051.72;;;8.88;74.95
84255;BME280;74400;44.692;18.998;2024-01-07T07:54:09;98058.22;;;8.92;75.76
84255;BME280;74400;44.692;18.998;2024-01-07T07:56:35;98055.78;;;8.81;75.00
84255;BME280;74400;44.692;18.998;2024-01-07T07:59:02;98060.25;;;8.89;75.40
84255;BME280;74400;44.692;18.998;2024-01-07T08:01:28;98054.44;;;8.77;76.43
84255;BME280;74400;44.692;18.998;2024-01-07T08:03:54;98047.97;;;8.73;75.64
84255;BME280;74400;44.692;18.998;2024-01-07T08:06:19;98056.84;;;8.69;76.14
84255;BME280;74400;44.692;18.998;2024-01-07T08:08:45;98062.50;;;8.63;76.81
84255;BME280;74400;44.692;18.998;2024-01-07T08:11:11;98057.53;;;8.61;76.23
84255;BME280;74400;44.692;18.998;2024-01-07T08:13:37;98058.59;;;8.59;76.71
84255;BME280;74400;44.692;18.998;2024-01-07T08:16:04;98058.88;;;8.65;76.27
84255;BME280;74400;44.692;18.998;2024-01-07T08:18:30;98065.38;;;8.70;76.69
84255;BME280;74400;44.692;18.998;2024-01-07T08:20:55;98062.81;;;8.70;77.02
84255;BME280;74400;44.692;18.998;2024-01-07T08:23:21;98072.22;;;8.69;76.83
84255;BME280;74400;44.692;18.998;2024-01-07T08:25:48;98066.72;;;8.64;77.41
84255;BME280;74400;44.692;18.998;2024-01-07T08:28:14;98068.19;;;8.66;76.60
84255;BME280;74400;44.692;18.998;2024-01-07T08:30:39;98062.66;;;8.61;77.93
84255;BME280;74400;44.692;18.998;2024-01-07T08:33:05;98069.53;;;8.61;77.41
84255;BME280;74400;44.692;18.998;2024-01-07T08:35:30;98070.63;;;8.58;78.09
84255;BME280;74400;44.692;18.998;2024-01-07T08:37:57;98066.69;;;8.54;78.14
84255;BME280;74400;44.692;18.998;2024-01-07T08:40:22;98072.47;;;8.56;77.68
84255;BME280;74400;44.692;18.998;2024-01-07T08:42:48;98066.41;;;8.48;78.38
84255;BME280;74400;44.692;18.998;2024-01-07T08:45:14;98078.13;;;8.40;78.83
84255;BME280;74400;44.692;18.998;2024-01-07T08:47:39;98079.31;;;8.36;78.64
84255;BME280;74400;44.692;18.998;2024-01-07T08:50:05;98087.00;;;8.36;78.48
84255;BME280;74400;44.692;18.998;2024-01-07T08:52:31;98086.44;;;8.33;79.26
84255;BME280;74400;44.692;18.998;2024-01-07T08:54:56;98095.63;;;8.35;79.39
84255;BME280;74400;44.692;18.998;2024-01-07T08:57:22;98086.47;;;8.43;79.25
84255;BME280;74400;44.692;18.998;2024-01-07T08:59:49;98098.75;;;8.49;78.23
84255;BME280;74400;44.692;18.998;2024-01-07T09:02:14;98101.59;;;8.46;79.10
84255;BME280;74400;44.692;18.998;2024-01-07T09:04:40;98104.94;;;8.36;78.83
84255;BME280;74400;44.692;18.998;2024-01-07T09:07:05;98103.34;;;8.14;79.18
84255;BME280;74400;44.692;18.998;2024-01-07T09:09:31;98106.19;;;8.11;79.54
84255;BME280;74400;44.692;18.998;2024-01-07T09:11:57;98103.88;;;8.08;80.09
84255;BME280;74400;44.692;18.998;2024-01-07T09:14:24;98108.19;;;8.08;80.30
84255;BME280;74400;44.692;18.998;2024-01-07T09:16:50;98107.66;;;8.14;80.54
84255;BME280;74400;44.692;18.998;2024-01-07T09:19:17;98109.41;;;8.13;80.28
84255;BME280;74400;44.692;18.998;2024-01-07T09:21:43;98115.59;;;8.11;80.66
84255;BME280;74400;44.692;18.998;2024-01-07T09:24:09;98106.44;;;8.08;79.13
84255;BME280;74400;44.692;18.998;2024-01-07T09:26:35;98103.56;;;8.02;80.30
84255;BME280;74400;44.692;18.998;2024-01-07T09:29:00;98099.25;;;8.02;80.59
84255;BME280;74400;44.692;18.998;2024-01-07T09:31:27;98101.69;;;8.04;81.33
84255;BME280;74400;44.692;18.998;2024-01-07T09:33:52;98103.69;;;8.00;80.62
84255;BME280;74400;44.692;18.998;2024-01-07T09:36:18;98103.22;;;7.85;81.08
84255;BME280;74400;44.692;18.998;2024-01-07T09:38:44;98104.97;;;7.85;82.31
84255;BME280;74400;44.692;18.998;2024-01-07T09:41:09;98109.03;;;7.87;82.65
84255;BME280;74400;44.692;18.998;2024-01-07T09:43:35;98111.47;;;7.89;82.75
84255;BME280;74400;44.692;18.998;2024-01-07T09:46:02;98123.19;;;7.92;81.45
84255;BME280;74400;44.692;18.998;2024-01-07T09:48:28;98116.72;;;7.87;81.77
84255;BME280;74400;44.692;18.998;2024-01-07T09:50:55;98116.06;;;7.95;82.30
84255;BME280;74400;44.692;18.998;2024-01-07T09:53:25;98104.50;;;8.01;82.95
84255;BME280;74400;44.692;18.998;2024-01-07T09:55:59;98106.25;;;8.00;83.70
84255;BME280;74400;44.692;18.998;2024-01-07T09:58:27;98094.94;;;8.03;82.09
84255;BME280;74400;44.692;18.998;2024-01-07T10:00:54;98096.56;;;8.04;81.55
84255;BME280;74400;44.692;18.998;2024-01-07T10:03:20;98109.38;;;8.04;83.81
84255;BME280;74400;44.692;18.998;2024-01-07T10:05:45;98105.19;;;8.03;82.41
84255;BME280;74400;44.692;18.998;2024-01-07T10:08:11;98114.09;;;7.99;83.79
84255;BME280;74400;44.692;18.998;2024-01-07T10:10:37;98105.75;;;8.06;83.15
84255;BME280;74400;44.692;18.998;2024-01-07T10:13:03;98104.13;;;8.05;81.79
84255;BME280;74400;44.692;18.998;2024-01-07T10:15:29;98097.38;;;8.04;83.06
84255;BME280;74400;44.692;18.998;2024-01-07T10:17:55;98097.25;;;8.06;84.34
84255;BME280;74400;44.692;18.998;2024-01-07T10:20:21;98092.44;;;8.12;82.33
84255;BME280;74400;44.692;18.998;2024-01-07T10:22:50;98092.97;;;8.16;83.29
84255;BME280;74400;44.692;18.998;2024-01-07T10:25:17;98084.88;;;8.11;83.90
84255;BME280;74400;44.692;18.998;2024-01-07T10:27:43;98080.00;;;8.08;83.87
84255;BME280;74400;44.692;18.998;2024-01-07T10:30:09;98078.41;;;8.07;83.90
84255;BME280;74400;44.692;18.998;2024-01-07T10:32:36;98073.94;;;8.09;83.36
84255;BME280;74400;44.692;18.998;2024-01-07T10:35:03;98080.69;;;8.10;83.91
84255;BME280;74400;44.692;18.998;2024-01-07T10:37:30;98084.63;;;8.14;83.93
84255;BME280;74400;44.692;18.998;2024-01-07T10:40:00;98080.72;;;8.20;81.43
84255;BME280;74400;44.692;18.998;2024-01-07T10:42:33;98083.00;;;8.13;81.90
84255;BME280;74400;44.692;18.998;2024-01-07T10:45:02;98078.31;;;8.18;82.04
84255;BME280;74400;44.692;18.998;2024-01-07T10:47:30;98077.53;;;8.27;81.12
84255;BME280;74400;44.692;18.998;2024-01-07T10:49:59;98076.94;;;8.24;82.77
84255;BME280;74400;44.692;18.998;2024-01-07T10:52:27;98089.09;;;8.22;80.69
84255;BME280;74400;44.692;18.998;2024-01-07T10:54:56;98076.28;;;8.12;82.29
84255;BME280;74400;44.692;18.998;2024-01-07T10:57:38;98086.22;;;8.15;82.74
84255;BME280;74400;44.692;18.998;2024-01-07T11:00:07;98083.44;;;8.18;83.89
84255;BME280;74400;44.692;18.998;2024-01-07T11:02:41;98083.28;;;8.20;82.53
84255;BME280;74400;44.692;18.998;2024-01-07T11:07:45;98091.41;;;8.34;83.21
84255;BME280;74400;44.692;18.998;2024-01-07T11:10:14;98085.38;;;8.35;80.21
84255;BME280;74400;44.692;18.998;2024-01-07T11:12:42;98089.31;;;8.49;78.90
84255;BME280;74400;44.692;18.998;2024-01-07T11:15:08;98081.78;;;8.48;79.11
84255;BME280;74400;44.692;18.998;2024-01-07T11:17:40;98084.09;;;8.51;79.52
84255;BME280;74400;44.692;18.998;2024-01-07T11:20:17;98080.81;;;8.49;79.62
84255;BME280;74400;44.692;18.998;2024-01-07T11:22:42;98083.94;;;8.62;78.67
84255;BME280;74400;44.692;18.998;2024-01-07T11:27:42;98099.31;;;8.62;78.64
84255;BME280;74400;44.692;18.998;2024-01-07T11:32:42;98090.44;;;8.66;78.71
84255;BME280;74400;44.692;18.998;2024-01-07T11:35:07;98098.53;;;8.61;78.08
84255;BME280;74400;44.692;18.998;2024-01-07T11:37:33;98099.22;;;8.63;78.08
84255;BME280;74400;44.692;18.998;2024-01-07T11:39:59;98100.69;;;8.66;78.52
84255;BME280;74400;44.692;18.998;2024-01-07T11:42:25;98100.84;;;8.64;78.60
84255;BME280;74400;44.692;18.998;2024-01-07T11:44:53;98105.41;;;8.61;78.65
84255;BME280;74400;44.692;18.998;2024-01-07T11:47:20;98114.69;;;8.52;77.52
84255;BME280;74400;44.692;18.998;2024-01-07T11:49:47;98120.63;;;8.53;78.77
84255;BME280;74400;44.692;18.998;2024-01-07T11:52:13;98117.91;;;8.45;78.53
84255;BME280;74400;44.692;18.998;2024-01-07T11:54:39;98117.50;;;8.39;78.43
84255;BME280;74400;44.692;18.998;2024-01-07T11:57:06;98117.16;;;8.33;79.24
84255;BME280;74400;44.692;18.998;2024-01-07T11:59:33;98111.81;;;8.36;79.14
84255;BME280;74400;44.692;18.998;2024-01-07T12:02:00;98118.53;;;8.37;77.86
84255;BME280;74400;44.692;18.998;2024-01-07T12:04:26;98112.50;;;8.38;79.13
84255;BME280;74400;44.692;18.998;2024-01-07T12:06:53;98118.59;;;8.47;78.40
84255;BME280;74400;44.692;18.998;2024-01-07T12:09:19;98121.16;;;8.47;78.33
84255;BME280;74400;44.692;18.998;2024-01-07T12:11:45;98125.59;;;8.45;78.72
84255;BME280;74400;44.692;18.998;2024-01-07T12:14:11;98122.91;;;8.46;78.73
84255;BME280;74400;44.692;18.998;2024-01-07T12:16:37;98119.25;;;8.49;78.41
84255;BME280;74400;44.692;18.998;2024-01-07T12:19:03;98119.53;;;8.46;78.94
84255;BME280;74400;44.692;18.998;2024-01-07T12:21:29;98120.53;;;8.33;78.50
84255;BME280;74400;44.692;18.998;2024-01-07T12:23:55;98117.31;;;8.31;79.90
84255;BME280;74400;44.692;18.998;2024-01-07T12:26:31;98114.66;;;8.43;79.62
84255;BME280;74400;44.692;18.998;2024-01-07T12:29:00;98118.72;;;8.55;79.84
84255;BME280;74400;44.692;18.998;2024-01-07T12:31:32;98126.41;;;8.55;78.67
84255;BME280;74400;44.692;18.998;2024-01-07T12:33:59;98128.56;;;8.50;79.41
84255;BME280;74400;44.692;18.998;2024-01-07T12:36:25;98128.16;;;8.45;79.66
84255;BME280;74400;44.692;18.998;2024-01-07T12:38:52;98130.13;;;8.31;79.30
84255;BME280;74400;44.692;18.998;2024-01-07T12:41:21;98123.66;;;8.37;81.15
84255;BME280;74400;44.692;18.998;2024-01-07T12:43:49;98128.78;;;8.37;81.99
84255;BME280;74400;44.692;18.998;2024-01-07T12:46:15;98130.31;;;8.39;80.66
84255;BME280;74400;44.692;18.998;2024-01-07T12:48:42;98133.09;;;8.36;81.34
84255;BME280;74400;44.692;18.998;2024-01-07T12:51:08;98134.28;;;8.32;83.38
84255;BME280;74400;44.692;18.998;2024-01-07T12:53:33;98131.78;;;8.42;83.45
84255;BME280;74400;44.692;18.998;2024-01-07T12:55:59;98132.88;;;8.49;82.35
84255;BME280;74400;44.692;18.998;2024-01-07T12:58:25;98133.44;;;8.53;81.75
84255;BME280;74400;44.692;18.998;2024-01-07T13:00:51;98138.13;;;8.48;82.42
84255;BME280;74400;44.692;18.998;2024-01-07T13:03:17;98148.25;;;8.49;83.32
84255;BME280;74400;44.692;18.998;2024-01-07T13:05:46;98145.06;;;8.57;83.91
84255;BME280;74400;44.692;18.998;2024-01-07T13:10:45;98146.00;;;8.65;81.95
84255;BME280;74400;44.692;18.998;2024-01-07T13:13:11;98149.28;;;8.77;81.22
84255;BME280;74400;44.692;18.998;2024-01-07T13:15:38;98151.03;;;8.77;80.73